sensor_id;sensor_type;location;lat;lon;timestamp;temperature;humidity
25302;DHT22;13243;50.888;4.724;2023-07-13T00:05:00;18.20;99.90
25302;DHT22;13243;50.888;4.724;2023-07-13T00:10:03;17.80;99.90
25302;DHT22;13243;50.888;4.724;2023-07-13T00:15:25;17.90;99.90
25302;DHT22;13243;50.888;4.724;2023-07-13T00:20:27;17.90;99.90
25302;DHT22;13243;50.888;4.724;2023-07-13T00:25:29;17.80;99.90
25302;DHT22;13243;50.888;4.724;2023-07-13T00:30:31;17.80;99.90
25302;DHT22;13243;50.888;4.724;2023-07-13T00:35:34;17.70;99.90
25302;DHT22;13243;50.888;4.724;2023-07-13T00:40:36;17.70;99.90
25302;DHT22;13243;50.888;4.724;2023-07-13T00:50:53;17.50;99.90
25302;DHT22;13243;50.888;4.724;2023-07-13T00:55:57;17.60;99.90
25302;DHT22;13243;50.888;4.724;2023-07-13T01:00:59;17.50;99.90
25302;DHT22;13243;50.888;4.724;2023-07-13T01:06:01;17.40;99.90
25302;DHT22;13243;50.888;4.724;2023-07-13T01:11:03;17.40;99.90
25302;DHT22;13243;50.888;4.724;2023-07-13T01:16:18;17.40;99.90
25302;DHT22;13243;50.888;4.724;2023-07-13T01:21:21;17.40;99.90
25302;DHT22;13243;50.888;4.724;2023-07-13T01:26:23;17.50;99.90
25302;DHT22;13243;50.888;4.724;2023-07-13T01:31:25;17.40;99.90
25302;DHT22;13243;50.888;4.724;2023-07-13T01:36:27;17.30;99.90
25302;DHT22;13243;50.888;4.724;2023-07-13T01:41:29;17.30;99.90
25302;DHT22;13243;50.888;4.724;2023-07-13T01:46:31;17.10;99.90
25302;DHT22;13243;50.888;4.724;2023-07-13T01:51:33;17.20;99.90
25302;DHT22;13243;50.888;4.724;2023-07-13T01:56:35;17.10;99.90
25302;DHT22;13243;50.888;4.724;2023-07-13T02:01:37;17.10;99.90
25302;DHT22;13243;50.888;4.724;2023-07-13T02:06:39;17.00;99.90
25302;DHT22;13243;50.888;4.724;2023-07-13T02:11:41;17.00;99.90
25302;DHT22;13243;50.888;4.724;2023-07-13T02:16:43;17.00;99.90
25302;DHT22;13243;50.888;4.724;2023-07-13T02:21:44;17.00;99.90
25302;DHT22;13243;50.888;4.724;2023-07-13T02:26:47;16.90;99.90
25302;DHT22;13243;50.888;4.724;2023-07-13T02:31:49;16.80;99.90
25302;DHT22;13243;50.888;4.724;2023-07-13T02:36:51;16.80;99.90
25302;DHT22;13243;50.888;4.724;2023-07-13T02:41:53;16.80;99.90
25302;DHT22;13243;50.888;4.724;2023-07-13T02:46:55;16.70;99.90
25302;DHT22;13243;50.888;4.724;2023-07-13T02:51:57;16.60;99.90
25302;DHT22;13243;50.888;4.724;2023-07-13T02:56:59;16.80;99.90
25302;DHT22;13243;50.888;4.724;2023-07-13T03:02:02;16.70;99.90
25302;DHT22;13243;50.888;4.724;2023-07-13T03:07:04;16.60;99.90
25302;DHT22;13243;50.888;4.724;2023-07-13T03:12:06;16.60;99.90
25302;DHT22;13243;50.888;4.724;2023-07-13T03:17:08;16.70;99.90
25302;DHT22;13243;50.888;4.724;2023-07-13T03:22:10;16.60;99.90
25302;DHT22;13243;50.888;4.724;2023-07-13T03:27:13;16.70;99.90
25302;DHT22;13243;50.888;4.724;2023-07-13T03:32:15;16.70;99.90
25302;DHT22;13243;50.888;4.724;2023-07-13T03:37:16;16.50;99.90
25302;DHT22;13243;50.888;4.724;2023-07-13T03:42:18;16.60;99.90
25302;DHT22;13243;50.888;4.724;2023-07-13T03:47:20;16.50;99.90
25302;DHT22;13243;50.888;4.724;2023-07-13T03:52:22;16.50;99.90
25302;DHT22;13243;50.888;4.724;2023-07-13T03:57:25;16.50;99.90
25302;DHT22;13243;50.888;4.724;2023-07-13T04:02:26;16.60;99.90
25302;DHT22;13243;50.888;4.724;2023-07-13T04:07:28;16.50;99.90
25302;DHT22;13243;50.888;4.724;2023-07-13T04:12:30;16.60;99.90
25302;DHT22;13243;50.888;4.724;2023-07-13T04:17:32;16.40;99.90
25302;DHT22;13243;50.888;4.724;2023-07-13T04:22:34;16.50;99.90
25302;DHT22;13243;50.888;4.724;2023-07-13T04:27:36;16.60;99.90
25302;DHT22;13243;50.888;4.724;2023-07-13T04:32:38;16.40;99.90
25302;DHT22;13243;50.888;4.724;2023-07-13T04:37:40;16.40;99.90
25302;DHT22;13243;50.888;4.724;2023-07-13T04:42:42;16.40;99.90
25302;DHT22;13243;50.888;4.724;2023-07-13T04:47:44;16.50;99.90
25302;DHT22;13243;50.888;4.724;2023-07-13T04:52:47;16.50;99.90
25302;DHT22;13243;50.888;4.724;2023-07-13T04:57:49;16.50;99.90
25302;DHT22;13243;50.888;4.724;2023-07-13T05:02:51;16.50;99.90
25302;DHT22;13243;50.888;4.724;2023-07-13T05:07:54;16.50;99.90
25302;DHT22;13243;50.888;4.724;2023-07-13T05:12:56;16.70;99.90
25302;DHT22;13243;50.888;4.724;2023-07-13T05:17:58;16.80;99.90
25302;DHT22;13243;50.888;4.724;2023-07-13T05:23:00;16.90;99.90
25302;DHT22;13243;50.888;4.724;2023-07-13T05:28:02;16.90;99.90
25302;DHT22;13243;50.888;4.724;2023-07-13T05:33:04;17.10;99.90
25302;DHT22;13243;50.888;4.724;2023-07-13T05:38:06;17.00;99.90
25302;DHT22;13243;50.888;4.724;2023-07-13T05:43:08;17.20;99.90
25302;DHT22;13243;50.888;4.724;2023-07-13T05:48:10;17.20;99.90
25302;DHT22;13243;50.888;4.724;2023-07-13T05:53:12;17.20;99.90
25302;DHT22;13243;50.888;4.724;2023-07-13T05:58:14;17.30;99.90
25302;DHT22;13243;50.888;4.724;2023-07-13T06:03:16;17.10;99.90
25302;DHT22;13243;50.888;4.724;2023-07-13T06:08:18;17.10;99.90
25302;DHT22;13243;50.888;4.724;2023-07-13T06:13:20;17.30;99.90
25302;DHT22;13243;50.888;4.724;2023-07-13T06:18:22;17.40;99.90
25302;DHT22;13243;50.888;4.724;2023-07-13T06:23:24;17.20;99.90
25302;DHT22;13243;50.888;4.724;2023-07-13T06:28:26;17.40;99.90
25302;DHT22;13243;50.888;4.724;2023-07-13T06:33:28;17.40;99.90
25302;DHT22;13243;50.888;4.724;2023-07-13T06:38:30;17.70;99.90
25302;DHT22;13243;50.888;4.724;2023-07-13T06:43:33;17.80;99.90
25302;DHT22;13243;50.888;4.724;2023-07-13T06:48:35;17.70;99.90
25302;DHT22;13243;50.888;4.724;2023-07-13T06:53:37;17.80;99.90
25302;DHT22;13243;50.888;4.724;2023-07-13T06:58:39;18.10;99.90
25302;DHT22;13243;50.888;4.724;2023-07-13T07:03:41;17.80;99.90
25302;DHT22;13243;50.888;4.724;2023-07-13T07:08:43;17.70;99.90
25302;DHT22;13243;50.888;4.724;2023-07-13T07:13:46;18.50;99.90
25302;DHT22;13243;50.888;4.724;2023-07-13T07:18:48;18.60;99.90
25302;DHT22;13243;50.888;4.724;2023-07-13T07:23:52;18.90;99.90
25302;DHT22;13243;50.888;4.724;2023-07-13T07:28:54;18.90;99.90
25302;DHT22;13243;50.888;4.724;2023-07-13T07:34:15;18.30;99.90
25302;DHT22;13243;50.888;4.724;2023-07-13T07:39:17;18.30;99.90
25302;DHT22;13243;50.888;4.724;2023-07-13T07:44:19;18.50;99.90
25302;DHT22;13243;50.888;4.724;2023-07-13T07:49:21;18.40;99.90
25302;DHT22;13243;50.888;4.724;2023-07-13T07:54:23;18.40;99.90
25302;DHT22;13243;50.888;4.724;2023-07-13T07:59:45;18.50;99.90
25302;DHT22;13243;50.888;4.724;2023-07-13T08:04:50;19.00;99.90
25302;DHT22;13243;50.888;4.724;2023-07-13T08:09:54;18.90;99.90
25302;DHT22;13243;50.888;4.724;2023-07-13T08:14:56;18.90;99.90
25302;DHT22;13243;50.888;4.724;2023-07-13T08:20:02;18.70;99.90
25302;DHT22;13243;50.888;4.724;2023-07-13T08:25:05;18.80;99.90
25302;DHT22;13243;50.888;4.724;2023-07-13T08:30:08;19.10;99.90
25302;DHT22;13243;50.888;4.724;2023-07-13T08:35:10;19.50;99.90
25302;DHT22;13243;50.888;4.724;2023-07-13T08:40:12;19.70;99.90
25302;DHT22;13243;50.888;4.724;2023-07-13T08:50:32;19.80;99.90
25302;DHT22;13243;50.888;4.724;2023-07-13T08:55:58;19.70;99.90
25302;DHT22;13243;50.888;4.724;2023-07-13T09:07:33;20.50;99.90
25302;DHT22;13243;50.888;4.724;2023-07-13T09:17:27;19.80;99.90
25302;DHT22;13243;50.888;4.724;2023-07-13T09:22:34;19.70;99.90
25302;DHT22;13243;50.888;4.724;2023-07-13T09:27:43;19.80;99.90
25302;DHT22;13243;50.888;4.724;2023-07-13T09:32:51;20.10;99.90
25302;DHT22;13243;50.888;4.724;2023-07-13T09:37:59;20.50;99.90
25302;DHT22;13243;50.888;4.724;2023-07-13T09:43:03;21.10;99.90
25302;DHT22;13243;50.888;4.724;2023-07-13T09:48:11;21.00;99.90
25302;DHT22;13243;50.888;4.724;2023-07-13T09:53:17;20.50;99.90
25302;DHT22;13243;50.888;4.724;2023-07-13T09:58:22;20.70;99.90
25302;DHT22;13243;50.888;4.724;2023-07-13T10:03:35;21.10;99.90
25302;DHT22;13243;50.888;4.724;2023-07-13T10:08:41;21.50;99.90
25302;DHT22;13243;50.888;4.724;2023-07-13T10:18:58;21.10;99.90
25302;DHT22;13243;50.888;4.724;2023-07-13T10:24:22;20.70;99.90
25302;DHT22;13243;50.888;4.724;2023-07-13T10:29:27;21.10;99.90
25302;DHT22;13243;50.888;4.724;2023-07-13T10:34:29;21.60;99.90
25302;DHT22;13243;50.888;4.724;2023-07-13T10:39:33;21.60;99.90
25302;DHT22;13243;50.888;4.724;2023-07-13T10:44:36;21.60;99.90
25302;DHT22;13243;50.888;4.724;2023-07-13T10:49:39;22.10;99.90
25302;DHT22;13243;50.888;4.724;2023-07-13T10:54:42;21.90;99.90
25302;DHT22;13243;50.888;4.724;2023-07-13T11:05:28;22.40;99.90
25302;DHT22;13243;50.888;4.724;2023-07-13T11:15:48;22.10;99.90
25302;DHT22;13243;50.888;4.724;2023-07-13T11:20:51;22.10;99.90
25302;DHT22;13243;50.888;4.724;2023-07-13T11:25:53;21.70;99.90
25302;DHT22;13243;50.888;4.724;2023-07-13T11:36:17;21.80;99.90
25302;DHT22;13243;50.888;4.724;2023-07-13T11:42:08;21.70;99.90
25302;DHT22;13243;50.888;4.724;2023-07-13T11:47:14;21.60;99.90
25302;DHT22;13243;50.888;4.724;2023-07-13T11:52:26;21.90;99.90
25302;DHT22;13243;50.888;4.724;2023-07-13T11:57:36;22.60;99.90
25302;DHT22;13243;50.888;4.724;2023-07-13T12:02:45;22.40;99.90
25302;DHT22;13243;50.888;4.724;2023-07-13T12:07:48;22.30;99.90
25302;DHT22;13243;50.888;4.724;2023-07-13T12:12:56;22.60;99.90
25302;DHT22;13243;50.888;4.724;2023-07-13T12:17:58;21.80;99.90
25302;DHT22;13243;50.888;4.724;2023-07-13T12:23:00;21.80;99.90
25302;DHT22;13243;50.888;4.724;2023-07-13T12:33:33;21.70;99.90
25302;DHT22;13243;50.888;4.724;2023-07-13T12:38:35;21.70;99.90
25302;DHT22;13243;50.888;4.724;2023-07-13T12:43:37;21.60;99.90
25302;DHT22;13243;50.888;4.724;2023-07-13T12:48:41;21.30;99.90
25302;DHT22;13243;50.888;4.724;2023-07-13T12:54:15;21.40;99.90
25302;DHT22;13243;50.888;4.724;2023-07-13T12:59:20;21.40;99.90
25302;DHT22;13243;50.888;4.724;2023-07-13T13:04:23;21.30;99.90
25302;DHT22;13243;50.888;4.724;2023-07-13T13:09:25;21.50;99.90
25302;DHT22;13243;50.888;4.724;2023-07-13T13:14:27;21.40;99.90
25302;DHT22;13243;50.888;4.724;2023-07-13T13:19:29;20.70;99.90
25302;DHT22;13243;50.888;4.724;2023-07-13T13:24:32;20.40;99.90
25302;DHT22;13243;50.888;4.724;2023-07-13T13:29:37;20.40;99.90
25302;DHT22;13243;50.888;4.724;2023-07-13T13:34:41;20.30;99.90
25302;DHT22;13243;50.888;4.724;2023-07-13T13:39:44;19.80;99.90
25302;DHT22;13243;50.888;4.724;2023-07-13T13:45:03;20.10;99.90
25302;DHT22;13243;50.888;4.724;2023-07-13T13:50:13;20.50;99.90
25302;DHT22;13243;50.888;4.724;2023-07-13T13:55:19;20.80;99.90
25302;DHT22;13243;50.888;4.724;2023-07-13T14:00:21;21.70;99.90
25302;DHT22;13243;50.888;4.724;2023-07-13T14:05:24;21.40;99.90
25302;DHT22;13243;50.888;4.724;2023-07-13T14:10:30;21.40;99.90
25302;DHT22;13243;50.888;4.724;2023-07-13T14:15:32;21.20;99.90
25302;DHT22;13243;50.888;4.724;2023-07-13T14:20:34;21.40;99.90
25302;DHT22;13243;50.888;4.724;2023-07-13T14:25:36;22.00;99.90
25302;DHT22;13243;50.888;4.724;2023-07-13T14:30:38;21.80;99.90
25302;DHT22;13243;50.888;4.724;2023-07-13T14:35:40;22.00;99.90
25302;DHT22;13243;50.888;4.724;2023-07-13T14:40:44;22.60;99.90
25302;DHT22;13243;50.888;4.724;2023-07-13T14:45:50;22.90;99.90
25302;DHT22;13243;50.888;4.724;2023-07-13T14:50:57;23.70;99.90
25302;DHT22;13243;50.888;4.724;2023-07-13T14:55:59;24.40;99.90
25302;DHT22;13243;50.888;4.724;2023-07-13T15:01:01;24.20;99.90
25302;DHT22;13243;50.888;4.724;2023-07-13T15:06:03;23.30;99.90
25302;DHT22;13243;50.888;4.724;2023-07-13T15:11:07;22.20;99.90
25302;DHT22;13243;50.888;4.724;2023-07-13T15:16:22;22.20;99.90
25302;DHT22;13243;50.888;4.724;2023-07-13T15:21:25;21.80;99.90
25302;DHT22;13243;50.888;4.724;2023-07-13T15:26:29;22.60;99.90
25302;DHT22;13243;50.888;4.724;2023-07-13T15:31:32;24.10;99.90
25302;DHT22;13243;50.888;4.724;2023-07-13T15:36:35;23.20;99.90
25302;DHT22;13243;50.888;4.724;2023-07-13T15:41:37;24.10;99.90
25302;DHT22;13243;50.888;4.724;2023-07-13T15:46:39;24.10;99.90
25302;DHT22;13243;50.888;4.724;2023-07-13T15:51:41;23.60;99.90
25302;DHT22;13243;50.888;4.724;2023-07-13T15:56:46;23.60;99.90
25302;DHT22;13243;50.888;4.724;2023-07-13T16:01:50;24.80;99.90
25302;DHT22;13243;50.888;4.724;2023-07-13T16:06:52;25.30;99.90
25302;DHT22;13243;50.888;4.724;2023-07-13T16:11:54;25.00;99.90
25302;DHT22;13243;50.888;4.724;2023-07-13T16:16:59;25.90;99.90
25302;DHT22;13243;50.888;4.724;2023-07-13T16:22:03;26.20;99.90
25302;DHT22;13243;50.888;4.724;2023-07-13T16:27:08;25.40;99.90
25302;DHT22;13243;50.888;4.724;2023-07-13T16:32:12;26.10;99.90
25302;DHT22;13243;50.888;4.724;2023-07-13T16:37:27;27.10;99.90
25302;DHT22;13243;50.888;4.724;2023-07-13T16:42:30;26.70;99.90
25302;DHT22;13243;50.888;4.724;2023-07-13T16:47:33;26.00;99.90
25302;DHT22;13243;50.888;4.724;2023-07-13T16:52:35;24.90;99.90
25302;DHT22;13243;50.888;4.724;2023-07-13T16:57:38;25.40;99.90
25302;DHT22;13243;50.888;4.724;2023-07-13T17:02:40;24.30;99.90
25302;DHT22;13243;50.888;4.724;2023-07-13T17:07:43;24.70;99.90
25302;DHT22;13243;50.888;4.724;2023-07-13T17:12:50;24.70;99.90
25302;DHT22;13243;50.888;4.724;2023-07-13T17:17:53;25.00;99.90
25302;DHT22;13243;50.888;4.724;2023-07-13T17:23:17;24.10;99.90
25302;DHT22;13243;50.888;4.724;2023-07-13T17:28:21;23.60;99.90
25302;DHT22;13243;50.888;4.724;2023-07-13T17:33:28;23.90;99.90
25302;DHT22;13243;50.888;4.724;2023-07-13T17:38:38;23.70;99.90
25302;DHT22;13243;50.888;4.724;2023-07-13T17:43:45;23.70;99.90
25302;DHT22;13243;50.888;4.724;2023-07-13T17:48:48;24.10;99.90
25302;DHT22;13243;50.888;4.724;2023-07-13T17:53:51;24.00;99.90
25302;DHT22;13243;50.888;4.724;2023-07-13T17:58:53;24.00;99.90
25302;DHT22;13243;50.888;4.724;2023-07-13T18:03:55;24.30;99.90
25302;DHT22;13243;50.888;4.724;2023-07-13T18:09:00;24.10;99.90
25302;DHT22;13243;50.888;4.724;2023-07-13T18:14:11;23.90;99.90
25302;DHT22;13243;50.888;4.724;2023-07-13T18:19:30;23.60;99.90
25302;DHT22;13243;50.888;4.724;2023-07-13T18:24:34;23.50;99.90
25302;DHT22;13243;50.888;4.724;2023-07-13T18:29:36;23.30;99.90
25302;DHT22;13243;50.888;4.724;2023-07-13T18:34:40;23.30;99.90
25302;DHT22;13243;50.888;4.724;2023-07-13T18:39:47;23.20;99.90
25302;DHT22;13243;50.888;4.724;2023-07-13T18:44:50;23.10;99.90
25302;DHT22;13243;50.888;4.724;2023-07-13T18:49:52;23.00;99.90
25302;DHT22;13243;50.888;4.724;2023-07-13T18:54:57;23.10;99.90
25302;DHT22;13243;50.888;4.724;2023-07-13T19:00:00;23.10;99.90
25302;DHT22;13243;50.888;4.724;2023-07-13T19:05:29;22.90;99.90
25302;DHT22;13243;50.888;4.724;2023-07-13T19:10:48;22.80;99.90
25302;DHT22;13243;50.888;4.724;2023-07-13T19:15:51;22.80;99.90
25302;DHT22;13243;50.888;4.724;2023-07-13T19:20:58;22.70;99.90
25302;DHT22;13243;50.888;4.724;2023-07-13T19:26:04;22.80;99.90
25302;DHT22;13243;50.888;4.724;2023-07-13T19:31:23;22.80;99.90
25302;DHT22;13243;50.888;4.724;2023-07-13T19:36:26;22.60;99.90
25302;DHT22;13243;50.888;4.724;2023-07-13T19:41:29;22.50;99.90
25302;DHT22;13243;50.888;4.724;2023-07-13T19:46:35;22.30;99.90
25302;DHT22;13243;50.888;4.724;2023-07-13T19:51:37;22.30;99.90
25302;DHT22;13243;50.888;4.724;2023-07-13T19:56:40;22.30;99.90
25302;DHT22;13243;50.888;4.724;2023-07-13T20:01:43;22.00;99.90
25302;DHT22;13243;50.888;4.724;2023-07-13T20:06:45;22.00;99.90
25302;DHT22;13243;50.888;4.724;2023-07-13T20:11:48;22.00;99.90
25302;DHT22;13243;50.888;4.724;2023-07-13T20:16:57;22.00;99.90
25302;DHT22;13243;50.888;4.724;2023-07-13T20:22:01;22.00;99.90
25302;DHT22;13243;50.888;4.724;2023-07-13T20:27:05;21.90;99.90
25302;DHT22;13243;50.888;4.724;2023-07-13T20:32:08;21.90;99.90
25302;DHT22;13243;50.888;4.724;2023-07-13T20:42:24;21.70;99.90
25302;DHT22;13243;50.888;4.724;2023-07-13T20:47:26;21.80;99.90
25302;DHT22;13243;50.888;4.724;2023-07-13T20:52:29;21.70;99.90
25302;DHT22;13243;50.888;4.724;2023-07-13T20:57:31;21.50;99.90
25302;DHT22;13243;50.888;4.724;2023-07-13T21:02:34;21.60;99.90
25302;DHT22;13243;50.888;4.724;2023-07-13T21:07:36;21.60;99.90
25302;DHT22;13243;50.888;4.724;2023-07-13T21:12:39;21.30;99.90
25302;DHT22;13243;50.888;4.724;2023-07-13T21:17:41;21.20;99.90
25302;DHT22;13243;50.888;4.724;2023-07-13T21:22:43;21.10;99.90
25302;DHT22;13243;50.888;4.724;2023-07-13T21:27:48;21.00;99.90
25302;DHT22;13243;50.888;4.724;2023-07-13T21:32:52;21.00;99.90
25302;DHT22;13243;50.888;4.724;2023-07-13T21:37:58;20.90;99.90
25302;DHT22;13243;50.888;4.724;2023-07-13T21:43:00;20.90;99.90
25302;DHT22;13243;50.888;4.724;2023-07-13T21:48:02;20.70;99.90
25302;DHT22;13243;50.888;4.724;2023-07-13T21:53:19;20.60;99.90
25302;DHT22;13243;50.888;4.724;2023-07-13T21:58:33;20.50;99.90
25302;DHT22;13243;50.888;4.724;2023-07-13T22:03:37;20.40;99.90
25302;DHT22;13243;50.888;4.724;2023-07-13T22:08:39;20.20;99.90
25302;DHT22;13243;50.888;4.724;2023-07-13T22:13:42;20.10;99.90
25302;DHT22;13243;50.888;4.724;2023-07-13T22:18:45;20.00;99.90
25302;DHT22;13243;50.888;4.724;2023-07-13T22:23:48;20.10;99.90
25302;DHT22;13243;50.888;4.724;2023-07-13T22:28:55;20.10;99.90
25302;DHT22;13243;50.888;4.724;2023-07-13T22:33:57;20.10;99.90
25302;DHT22;13243;50.888;4.724;2023-07-13T22:38:59;19.90;99.90
25302;DHT22;13243;50.888;4.724;2023-07-13T22:44:01;19.90;99.90
25302;DHT22;13243;50.888;4.724;2023-07-13T22:49:27;19.70;99.90
25302;DHT22;13243;50.888;4.724;2023-07-13T22:54:33;19.80;99.90
25302;DHT22;13243;50.888;4.724;2023-07-13T22:59:36;19.60;99.90
25302;DHT22;13243;50.888;4.724;2023-07-13T23:04:38;19.60;99.90
25302;DHT22;13243;50.888;4.724;2023-07-13T23:09:41;19.60;99.90
25302;DHT22;13243;50.888;4.724;2023-07-13T23:15:04;19.50;99.90
25302;DHT22;13243;50.888;4.724;2023-07-13T23:20:24;19.40;99.90
25302;DHT22;13243;50.888;4.724;2023-07-13T23:25:29;19.20;99.90
25302;DHT22;13243;50.888;4.724;2023-07-13T23:30:34;19.30;99.90
25302;DHT22;13243;50.888;4.724;2023-07-13T23:35:37;19.30;99.90
25302;DHT22;13243;50.888;4.724;2023-07-13T23:40:39;19.20;99.90
25302;DHT22;13243;50.888;4.724;2023-07-13T23:45:41;19.10;99.90
25302;DHT22;13243;50.888;4.724;2023-07-13T23:50:44;19.10;99.90
25302;DHT22;13243;50.888;4.724;2023-07-13T23:55:46;19.00;99.90
